createdAt,value
2022-10-23T00:01:54.026Z,1.30
2022-10-23T00:04:22.007Z,1.57
2022-10-23T00:06:49.554Z,1.77
2022-10-23T00:09:19.272Z,2.70
2022-10-23T00:11:47.071Z,3.20
2022-10-23T00:14:15.211Z,3.23
2022-10-23T00:16:41.716Z,2.87
2022-10-23T00:19:08.244Z,2.53
2022-10-23T00:21:34.733Z,2.63
2022-10-23T00:24:01.302Z,2.73
2022-10-23T00:26:29.281Z,3.70
2022-10-23T00:28:55.943Z,3.03
2022-10-23T00:31:24.469Z,2.90
2022-10-23T00:33:51.605Z,2.80
2022-10-23T00:36:19.826Z,2.13
2022-10-23T00:38:46.890Z,2.00
2022-10-23T00:41:16.891Z,1.90
2022-10-23T00:44:06.388Z,1.30
2022-10-23T00:46:33.303Z,1.60
2022-10-23T00:49:00.665Z,1.23
2022-10-23T00:51:31.553Z,1.47
2022-10-23T00:54:23.051Z,1.30
2022-10-23T00:56:47.792Z,1.70
2022-10-23T00:59:16.077Z,1.53
2022-10-23T01:01:42.677Z,1.40
2022-10-23T01:04:09.964Z,1.37
2022-10-23T01:06:39.494Z,1.40
2022-10-23T01:09:14.860Z,1.30
2022-10-23T01:11:45.796Z,1.30
2022-10-23T01:14:20.123Z,1.27
2022-10-23T01:16:55.762Z,1.20
2022-10-23T01:19:30.984Z,1.20
2022-10-23T01:22:16.485Z,1.50
2022-10-23T01:24:48.044Z,1.13
2022-10-23T01:27:25.138Z,1.30
2022-10-23T01:30:01.207Z,1.30
2022-10-23T01:32:33.957Z,1.47
2022-10-23T01:35:04.999Z,1.77
2022-10-23T01:37:37.045Z,1.67
2022-10-23T01:40:08.440Z,1.80
2022-10-23T01:42:39.529Z,1.30
2022-10-23T01:45:11.238Z,1.47
2022-10-23T01:47:38.673Z,1.70
2022-10-23T01:50:07.408Z,1.60
2022-10-23T01:52:34.652Z,1.57
2022-10-23T01:55:01.585Z,1.73
2022-10-23T01:57:31.007Z,1.67
2022-10-23T02:00:03.744Z,1.47
2022-10-23T02:02:32.962Z,1.17
2022-10-23T02:05:04.628Z,1.50
2022-10-23T02:07:31.358Z,1.23
2022-10-23T02:09:58.247Z,1.17
2022-10-23T02:12:33.502Z,1.33
2022-10-23T02:15:09.505Z,1.70
2022-10-23T02:17:47.015Z,1.60
2022-10-23T02:20:19.756Z,1.43
2022-10-23T02:22:55.137Z,1.20
2022-10-23T02:25:30.701Z,1.27
2022-10-23T02:28:00.275Z,1.10
2022-10-23T02:30:30.786Z,1.30
2022-10-23T02:32:58.416Z,1.23
2022-10-23T02:35:25.536Z,1.30
2022-10-23T02:37:56.390Z,1.20
2022-10-23T02:40:26.874Z,1.43
2022-10-23T02:42:58.451Z,0.90
2022-10-23T02:45:33.422Z,1.20
2022-10-23T02:48:04.942Z,1.00
2022-10-23T02:50:38.054Z,1.10
2022-10-23T02:53:11.021Z,1.27
2022-10-23T02:55:46.967Z,1.03
2022-10-23T02:58:21.554Z,0.90
2022-10-23T03:00:53.733Z,1.20
2022-10-23T03:03:24.844Z,1.03
2022-10-23T03:05:51.421Z,1.30
2022-10-23T03:08:17.975Z,1.07
2022-10-23T03:10:44.565Z,1.40
2022-10-23T03:13:11.481Z,1.60
2022-10-23T03:15:38.045Z,1.30
2022-10-23T03:18:05.882Z,1.30
2022-10-23T03:20:32.392Z,1.50
2022-10-23T03:22:58.884Z,1.50
2022-10-23T03:25:25.358Z,1.60
2022-10-23T03:27:51.842Z,1.77
2022-10-23T03:30:18.894Z,1.83
2022-10-23T03:32:45.677Z,1.40
2022-10-23T03:35:13.871Z,1.63
2022-10-23T03:37:40.467Z,1.40
2022-10-23T03:40:08.629Z,1.53
2022-10-23T03:42:35.156Z,1.03
2022-10-23T03:45:01.688Z,1.03
2022-10-23T03:47:28.163Z,1.40
2022-10-23T03:49:54.648Z,1.20
2022-10-23T03:52:22.479Z,1.20
2022-10-23T03:54:49.194Z,1.23
2022-10-23T03:57:15.680Z,0.80
2022-10-23T03:59:42.191Z,1.10
2022-10-23T04:02:08.745Z,1.10
2022-10-23T04:04:35.511Z,1.73
2022-10-23T04:07:01.993Z,1.50
2022-10-23T04:09:30.091Z,1.40
2022-10-23T04:11:56.642Z,1.37
2022-10-23T04:14:23.320Z,1.20
2022-10-23T04:16:49.796Z,1.40
2022-10-23T04:19:16.325Z,1.00
2022-10-23T04:21:42.981Z,1.20
2022-10-23T04:24:09.531Z,1.37
2022-10-23T04:26:38.127Z,1.23
2022-10-23T04:29:04.703Z,1.30
2022-10-23T04:31:31.342Z,1.10
2022-10-23T04:33:57.912Z,1.53
2022-10-23T04:36:24.519Z,1.10
2022-10-23T04:38:50.993Z,1.40
2022-10-23T04:41:17.497Z,1.10
2022-10-23T04:43:45.331Z,1.20
2022-10-23T04:46:11.844Z,1.20
2022-10-23T04:48:38.395Z,0.93
2022-10-23T04:51:06.179Z,1.33
2022-10-23T04:53:32.930Z,1.50
2022-10-23T04:56:00.108Z,1.60
2022-10-23T04:58:28.628Z,1.50
2022-10-23T05:00:57.143Z,1.60
2022-10-23T05:03:24.965Z,1.20
2022-10-23T05:05:53.507Z,1.60
2022-10-23T05:08:20.030Z,1.73
2022-10-23T05:10:47.821Z,1.40
2022-10-23T05:13:14.391Z,1.70
2022-10-23T05:15:40.940Z,1.87
2022-10-23T05:18:12.965Z,1.50
2022-10-23T05:20:40.009Z,1.70
2022-10-23T05:23:10.432Z,1.50
2022-10-23T05:25:36.979Z,1.40
2022-10-23T05:28:03.865Z,1.50
2022-10-23T05:30:30.655Z,1.20
2022-10-23T05:32:57.185Z,1.67
2022-10-23T05:35:25.238Z,1.80
2022-10-23T05:37:53.694Z,1.60
2022-10-23T05:40:20.311Z,1.73
2022-10-23T05:42:47.016Z,1.43
2022-10-23T05:45:14.046Z,2.20
2022-10-23T05:47:40.593Z,1.83
2022-10-23T05:50:07.620Z,1.80
2022-10-23T05:52:35.461Z,2.00
2022-10-23T05:55:02.052Z,1.83
2022-10-23T05:57:28.527Z,2.07
2022-10-23T05:59:55.019Z,1.60
2022-10-23T06:02:21.526Z,1.87
2022-10-23T06:04:48.070Z,2.00
2022-10-23T06:07:14.591Z,2.13
2022-10-23T06:09:42.458Z,1.63
2022-10-23T06:12:08.954Z,1.70
2022-10-23T06:14:35.442Z,1.30
2022-10-23T06:17:01.966Z,1.40
2022-10-23T06:19:28.442Z,1.63
2022-10-23T06:21:54.933Z,1.40
2022-10-23T06:24:21.428Z,2.40
2022-10-23T06:26:49.300Z,2.43
2022-10-23T06:29:15.919Z,2.17
2022-10-23T06:31:42.440Z,1.70
2022-10-23T06:34:11.285Z,1.90
2022-10-23T06:36:37.888Z,2.23
2022-10-23T06:39:04.930Z,2.50
2022-10-23T06:41:31.491Z,2.40
2022-10-23T06:43:59.356Z,2.47
2022-10-23T06:46:25.920Z,2.13
2022-10-23T06:48:52.401Z,2.17
2022-10-23T06:51:19.016Z,2.30
2022-10-23T06:53:45.874Z,2.10
2022-10-23T06:56:12.907Z,2.10
2022-10-23T06:58:40.652Z,1.87
2022-10-23T07:01:11.988Z,1.80
2022-10-23T07:03:38.570Z,1.90
2022-10-23T07:06:07.232Z,1.77
2022-10-23T07:08:33.920Z,2.13
2022-10-23T07:11:03.657Z,2.00
2022-10-23T07:13:30.154Z,2.33
2022-10-23T07:15:56.730Z,2.40
2022-10-23T07:18:24.618Z,2.07
2022-10-23T07:20:57.872Z,2.40
2022-10-23T07:23:24.405Z,2.67
2022-10-23T07:25:50.932Z,1.97
2022-10-23T07:28:17.423Z,3.13
2022-10-23T07:30:43.925Z,2.33
2022-10-23T07:33:10.463Z,2.50
2022-10-23T07:35:40.564Z,2.13
2022-10-23T07:38:07.082Z,2.30
2022-10-23T07:40:33.561Z,2.20
2022-10-23T07:43:00.086Z,2.50
2022-10-23T07:45:26.549Z,2.10
2022-10-23T07:47:53.040Z,1.97
2022-10-23T07:50:19.728Z,2.27
2022-10-23T07:52:47.835Z,2.73
2022-10-23T07:55:14.809Z,2.17
2022-10-23T07:57:41.396Z,1.73
2022-10-23T08:00:11.171Z,1.80
2022-10-23T08:02:37.798Z,1.80
2022-10-23T08:05:04.785Z,2.00
2022-10-23T08:07:31.270Z,2.00
2022-10-23T08:09:59.107Z,1.80
2022-10-23T08:12:25.623Z,2.10
2022-10-23T08:14:52.324Z,1.83
2022-10-23T08:17:18.820Z,1.90
2022-10-23T08:19:45.336Z,1.80
2022-10-23T08:22:12.131Z,1.63
2022-10-23T08:24:38.698Z,1.73
2022-10-23T08:27:06.554Z,1.40
2022-10-23T08:29:33.110Z,1.80
2022-10-23T08:31:59.591Z,1.40
2022-10-23T08:34:26.133Z,1.40
2022-10-23T08:36:52.635Z,1.13
2022-10-23T08:39:19.141Z,1.53
2022-10-23T08:41:50.174Z,1.17
2022-10-23T08:44:25.800Z,1.17
2022-10-23T08:46:59.768Z,1.50
2022-10-23T08:49:40.775Z,1.20
2022-10-23T08:52:17.210Z,1.10
2022-10-23T08:54:54.670Z,1.27
2022-10-23T08:57:23.973Z,1.33
2022-10-23T08:59:56.004Z,1.40
2022-10-23T09:02:26.433Z,1.20
2022-10-23T09:04:55.645Z,1.23
2022-10-23T09:07:30.020Z,1.20
2022-10-23T09:10:10.655Z,1.20
2022-10-23T09:12:37.499Z,1.27
2022-10-23T09:15:22.769Z,1.10
2022-10-23T09:17:55.864Z,1.20
2022-10-23T09:20:25.121Z,1.17
2022-10-23T09:22:55.408Z,1.20
2022-10-23T09:25:24.707Z,1.13
2022-10-23T09:27:56.699Z,1.30
2022-10-23T09:30:28.633Z,1.23
2022-10-23T09:32:55.235Z,1.33
2022-10-23T09:35:23.118Z,0.93
2022-10-23T09:37:49.633Z,0.90
2022-10-23T09:40:19.511Z,1.07
2022-10-23T09:42:58.456Z,1.13
2022-10-23T09:45:29.381Z,1.03
2022-10-23T09:48:09.724Z,1.13
2022-10-23T09:50:36.504Z,1.17
2022-10-23T09:53:03.267Z,1.20
2022-10-23T09:55:29.915Z,1.57
2022-10-23T09:57:56.682Z,1.10
2022-10-23T10:00:25.251Z,1.10
2022-10-23T10:02:58.999Z,1.10
2022-10-23T10:05:28.268Z,1.23
2022-10-23T10:07:58.296Z,1.43
2022-10-23T10:10:29.530Z,1.20
2022-10-23T10:13:01.627Z,1.07
2022-10-23T10:15:33.539Z,1.30
2022-10-23T10:18:13.452Z,1.47
2022-10-23T10:20:53.106Z,1.30
2022-10-23T10:23:28.507Z,1.60
2022-10-23T10:26:07.921Z,1.70
2022-10-23T10:28:59.866Z,1.67
2022-10-23T10:31:31.884Z,1.50
2022-10-23T10:34:10.465Z,1.60
2022-10-23T10:36:46.590Z,1.27
2022-10-23T10:39:24.531Z,1.20
2022-10-23T10:42:04.140Z,1.30
2022-10-23T10:44:43.950Z,1.10
2022-10-23T10:47:18.483Z,1.10
2022-10-23T10:49:59.601Z,1.00
2022-10-23T10:52:33.210Z,1.30
2022-10-23T10:55:09.033Z,1.10
2022-10-23T10:57:40.952Z,1.10
2022-10-23T11:00:14.313Z,1.20
2022-10-23T11:02:45.822Z,1.10
2022-10-23T11:05:25.247Z,1.00
2022-10-23T11:07:58.999Z,1.37
2022-10-23T11:10:27.239Z,1.33
2022-10-23T11:12:53.956Z,1.10
2022-10-23T11:15:25.718Z,1.10
2022-10-23T11:17:56.959Z,1.07
2022-10-23T11:20:48.129Z,1.00
2022-10-23T11:23:46.457Z,0.80
2022-10-23T11:26:23.512Z,1.07
2022-10-23T11:29:10.300Z,1.20
2022-10-23T11:31:44.994Z,1.00
2022-10-23T11:34:44.665Z,1.47
2022-10-23T11:37:17.039Z,1.17
2022-10-23T11:40:00.107Z,1.10
2022-10-23T11:42:45.585Z,1.03
2022-10-23T11:45:30.233Z,1.10
2022-10-23T11:47:58.201Z,1.30
2022-10-23T11:50:27.711Z,1.30
2022-10-23T11:53:16.844Z,1.10
2022-10-23T11:56:02.007Z,1.40
2022-10-23T11:58:40.621Z,1.20
2022-10-23T12:01:30.707Z,1.30
2022-10-23T12:04:00.215Z,1.30
2022-10-23T12:06:29.537Z,1.73
2022-10-23T12:09:01.903Z,1.60
2022-10-23T12:11:41.962Z,1.30
2022-10-23T12:14:27.548Z,1.27
2022-10-23T12:16:54.188Z,1.00
2022-10-23T12:19:22.728Z,1.23
2022-10-23T12:21:51.916Z,1.10
2022-10-23T12:24:30.985Z,1.20
2022-10-23T12:27:18.211Z,0.80
2022-10-23T12:30:03.169Z,1.10
2022-10-23T12:32:44.764Z,1.10
2022-10-23T12:35:32.241Z,1.20
2022-10-23T12:38:12.519Z,1.20
2022-10-23T12:40:40.620Z,1.60
2022-10-23T12:43:22.470Z,1.10
2022-10-23T12:45:49.258Z,1.10
2022-10-23T12:48:19.347Z,1.10
2022-10-23T12:50:49.111Z,1.03
2022-10-23T12:53:17.449Z,0.90
2022-10-23T12:55:53.874Z,1.13
2022-10-23T12:58:22.209Z,0.90
2022-10-23T13:00:53.894Z,0.90
2022-10-23T13:03:21.415Z,0.87
2022-10-23T13:05:49.848Z,1.00
2022-10-23T13:08:17.358Z,1.00
2022-10-23T13:10:44.078Z,1.70
2022-10-23T13:13:13.607Z,1.47
2022-10-23T13:15:42.030Z,1.07
2022-10-23T13:18:09.813Z,0.80
2022-10-23T13:20:38.303Z,1.00
2022-10-23T13:23:16.662Z,0.90
2022-10-23T13:25:43.431Z,0.80
2022-10-23T13:28:21.122Z,0.80
2022-10-23T13:31:03.553Z,0.83
2022-10-23T13:33:34.077Z,0.90
2022-10-23T13:36:02.477Z,1.00
2022-10-23T13:38:31.663Z,0.93
2022-10-23T13:40:59.357Z,0.93
2022-10-23T13:43:28.737Z,0.90
2022-10-23T13:45:55.291Z,0.80
2022-10-23T13:48:21.819Z,0.70
2022-10-23T13:50:48.328Z,0.70
2022-10-23T13:53:15.371Z,0.90
2022-10-23T13:55:45.058Z,0.80
2022-10-23T13:58:11.746Z,0.70
2022-10-23T14:00:40.506Z,1.00
2022-10-23T14:03:07.001Z,1.00
2022-10-23T14:05:33.543Z,0.90
2022-10-23T14:08:00.038Z,1.10
2022-10-23T14:10:27.765Z,1.00
2022-10-23T14:12:54.449Z,1.00
2022-10-23T14:15:21.511Z,0.97
2022-10-23T14:17:49.440Z,0.97
2022-10-23T14:20:18.979Z,1.00
2022-10-23T14:22:46.250Z,1.00
2022-10-23T14:25:13.237Z,0.90
2022-10-23T14:27:39.763Z,1.00
2022-10-23T14:30:07.513Z,0.70
2022-10-23T14:32:34.184Z,0.80
2022-10-23T14:35:02.091Z,0.90
2022-10-23T14:37:29.610Z,0.90
2022-10-23T14:39:56.139Z,0.90
2022-10-23T14:42:22.678Z,1.00
2022-10-23T14:44:49.268Z,1.03
2022-10-23T14:47:15.802Z,0.70
2022-10-23T14:49:43.420Z,0.90
2022-10-23T14:52:11.261Z,1.07
2022-10-23T14:54:37.752Z,1.37
2022-10-23T14:57:04.572Z,1.50
2022-10-23T14:59:31.361Z,1.30
2022-10-23T15:01:57.866Z,1.17
2022-10-23T15:04:24.588Z,1.30
2022-10-23T15:06:51.502Z,1.20
2022-10-23T15:09:19.402Z,1.00
2022-10-23T15:11:46.011Z,1.33
2022-10-23T15:14:12.847Z,1.20
2022-10-23T15:16:39.545Z,1.10
2022-10-23T15:19:06.063Z,1.00
2022-10-23T15:21:32.556Z,1.00
2022-10-23T15:24:00.489Z,0.97
2022-10-23T15:26:28.397Z,1.13
2022-10-23T15:28:56.468Z,0.80
2022-10-23T15:31:46.529Z,0.80
2022-10-23T15:34:15.886Z,0.90
2022-10-23T15:36:42.634Z,0.80
2022-10-23T15:39:10.948Z,1.20
2022-10-23T15:41:41.168Z,0.80
2022-10-23T15:44:11.284Z,0.80
2022-10-23T15:46:37.952Z,1.10
2022-10-23T15:49:05.216Z,1.10
2022-10-23T15:51:31.793Z,1.10
2022-10-23T15:53:58.346Z,1.33
2022-10-23T15:56:24.988Z,1.20
2022-10-23T15:58:52.887Z,1.23
2022-10-23T16:01:19.732Z,1.10
2022-10-23T16:03:46.348Z,1.00
2022-10-23T16:06:14.538Z,1.10
2022-10-23T16:08:41.852Z,0.87
2022-10-23T16:11:14.340Z,1.10
2022-10-23T16:13:40.843Z,0.90
2022-10-23T16:16:09.007Z,1.00
2022-10-23T16:18:35.517Z,1.03
2022-10-23T16:21:02.039Z,0.90
2022-10-23T16:23:28.540Z,1.30
2022-10-23T16:25:55.118Z,1.87
2022-10-23T16:28:21.702Z,1.40
2022-10-23T16:30:48.197Z,1.40
2022-10-23T16:33:16.047Z,2.00
2022-10-23T16:35:42.536Z,2.33
2022-10-23T16:38:09.104Z,1.90
2022-10-23T16:40:35.617Z,1.70
2022-10-23T16:43:02.133Z,1.20
2022-10-23T16:45:28.680Z,1.20
2022-10-23T16:47:55.339Z,1.30
2022-10-23T16:50:23.303Z,1.40
2022-10-23T16:52:52.055Z,1.67
2022-10-23T16:55:21.942Z,1.40
2022-10-23T16:57:48.456Z,1.70
2022-10-23T17:00:15.497Z,1.60
2022-10-23T17:02:42.392Z,2.10
2022-10-23T17:05:09.288Z,1.40
2022-10-23T17:07:37.151Z,1.53
2022-10-23T17:10:04.411Z,1.43
2022-10-23T17:12:30.990Z,1.23
2022-10-23T17:14:57.525Z,1.80
2022-10-23T17:17:24.036Z,1.40
2022-10-23T17:19:50.554Z,1.10
2022-10-23T17:22:17.080Z,1.23
2022-10-23T17:24:47.484Z,1.20
2022-10-23T17:27:16.814Z,1.30
2022-10-23T17:29:43.448Z,2.60
2022-10-23T17:32:10.011Z,2.87
2022-10-23T17:34:36.791Z,2.60
2022-10-23T17:37:03.465Z,2.27
2022-10-23T17:39:30.129Z,2.33
2022-10-23T17:41:58.545Z,2.83
2022-10-23T17:44:25.502Z,1.60
2022-10-23T17:46:52.710Z,3.20
2022-10-23T17:49:19.374Z,3.30
2022-10-23T17:51:45.947Z,3.07
2022-10-23T17:54:12.856Z,2.70
2022-10-23T17:56:39.394Z,2.77
2022-10-23T17:59:08.996Z,2.90
2022-10-23T18:01:35.887Z,2.73
2022-10-23T18:04:04.912Z,2.60
2022-10-23T18:06:33.568Z,1.80
2022-10-23T18:09:01.206Z,1.80
2022-10-23T18:11:30.285Z,2.00
2022-10-23T18:13:57.816Z,1.67
2022-10-23T18:16:25.968Z,1.70
2022-10-23T18:18:52.594Z,1.27
2022-10-23T18:21:20.481Z,1.40
2022-10-23T18:23:47.483Z,1.30
2022-10-23T18:26:15.943Z,1.20
2022-10-23T18:28:42.954Z,1.10
2022-10-23T18:31:09.828Z,1.50
2022-10-23T18:33:37.900Z,1.40
2022-10-23T18:36:12.470Z,1.10
2022-10-23T18:38:39.040Z,1.30
2022-10-23T18:41:05.766Z,1.23
2022-10-23T18:43:43.267Z,1.23
2022-10-23T18:46:11.557Z,1.70
2022-10-23T18:48:39.990Z,1.97
2022-10-23T18:51:15.709Z,1.33
2022-10-23T18:53:43.323Z,1.53
2022-10-23T18:56:09.848Z,1.60
2022-10-23T18:58:36.374Z,1.60
2022-10-23T19:01:03.084Z,1.30
2022-10-23T19:03:29.713Z,1.50
2022-10-23T19:05:57.631Z,1.10
2022-10-23T19:08:24.188Z,1.27
2022-10-23T19:10:52.578Z,1.33
2022-10-23T19:13:19.074Z,1.30
2022-10-23T19:15:45.638Z,1.30
2022-10-23T19:18:12.179Z,1.40
2022-10-23T19:20:42.128Z,1.40
2022-10-23T19:23:12.787Z,1.73
2022-10-23T19:25:44.261Z,1.33
2022-10-23T19:28:10.976Z,1.60
2022-10-23T19:30:37.643Z,1.83
2022-10-23T19:33:04.187Z,2.27
2022-10-23T19:35:30.685Z,2.00
2022-10-23T19:37:57.185Z,2.30
2022-10-23T19:40:25.062Z,2.20
2022-10-23T19:42:51.608Z,1.87
2022-10-23T19:45:18.280Z,2.50
2022-10-23T19:47:45.106Z,2.40
2022-10-23T19:50:12.161Z,1.70
2022-10-23T19:52:38.670Z,1.70
2022-10-23T19:55:06.432Z,1.57
2022-10-23T19:57:34.560Z,2.23
2022-10-23T20:00:01.596Z,2.07
2022-10-23T20:02:28.786Z,1.70
2022-10-23T20:04:55.493Z,1.87
2022-10-23T20:07:22.042Z,1.60
2022-10-23T20:09:48.694Z,1.90
2022-10-23T20:12:15.260Z,2.43
2022-10-23T20:14:43.204Z,2.60
2022-10-23T20:17:09.699Z,2.40
2022-10-23T20:19:36.211Z,1.40
2022-10-23T20:22:02.746Z,1.90
2022-10-23T20:24:29.353Z,1.60
2022-10-23T20:26:56.737Z,1.57
2022-10-23T20:29:24.077Z,1.83
2022-10-23T20:31:52.307Z,1.63
2022-10-23T20:34:18.813Z,1.97
2022-10-23T20:36:47.979Z,1.57
2022-10-23T20:39:16.340Z,1.50
2022-10-23T20:41:42.912Z,1.60
2022-10-23T20:44:12.360Z,1.60
2022-10-23T20:46:39.056Z,1.83
2022-10-23T20:49:07.130Z,1.93
2022-10-23T20:51:33.875Z,1.47
2022-10-23T20:54:00.408Z,1.60
2022-10-23T20:56:28.808Z,1.50
2022-10-23T20:58:55.364Z,1.70
2022-10-23T21:01:22.527Z,1.73
2022-10-23T21:03:49.959Z,2.93
2022-10-23T21:06:19.437Z,2.00
2022-10-23T21:08:46.109Z,2.10
2022-10-23T21:11:14.280Z,1.63
2022-10-23T21:13:41.430Z,1.60
2022-10-23T21:16:14.809Z,1.70
2022-10-23T21:18:45.851Z,1.43
2022-10-23T21:21:13.089Z,1.70
2022-10-23T21:23:40.978Z,1.47
2022-10-23T21:26:07.766Z,1.63
2022-10-23T21:28:34.909Z,1.80
2022-10-23T21:31:02.876Z,1.60
2022-10-23T21:33:29.541Z,1.90
2022-10-23T21:35:58.335Z,1.67
2022-10-23T21:38:25.190Z,1.40
2022-10-23T21:40:53.059Z,1.20
2022-10-23T21:43:19.576Z,1.20
2022-10-23T21:45:46.079Z,1.70
2022-10-23T21:48:12.572Z,1.40
2022-10-23T21:50:39.196Z,1.40
2022-10-23T21:53:05.719Z,1.53
2022-10-23T21:55:32.300Z,1.50
2022-10-23T21:58:00.130Z,1.60
2022-10-23T22:00:26.664Z,1.63
2022-10-23T22:02:53.191Z,1.30
2022-10-23T22:05:19.728Z,1.57
2022-10-23T22:07:47.096Z,1.50
2022-10-23T22:10:13.730Z,1.87
2022-10-23T22:12:41.409Z,1.90
2022-10-23T22:15:10.311Z,1.70
2022-10-23T22:17:36.814Z,1.80
2022-10-23T22:20:03.863Z,1.80
2022-10-23T22:22:30.371Z,1.70
2022-10-23T22:24:56.886Z,2.30
2022-10-23T22:27:23.375Z,1.63
2022-10-23T22:29:49.867Z,2.53
2022-10-23T22:32:17.754Z,1.70
2022-10-23T22:34:59.732Z,1.70
2022-10-23T22:37:26.216Z,1.90
2022-10-23T22:39:53.100Z,1.67
2022-10-23T22:42:20.216Z,1.70
2022-10-23T22:44:46.735Z,1.70
2022-10-23T22:47:13.212Z,1.37
2022-10-23T22:49:41.035Z,1.10
2022-10-23T22:52:07.535Z,1.30
2022-10-23T22:54:34.379Z,1.40
2022-10-23T22:57:00.951Z,1.47
2022-10-23T22:59:27.482Z,1.17
2022-10-23T23:01:54.340Z,1.30
2022-10-23T23:07:10.767Z,1.50
2022-10-23T23:09:38.856Z,1.53
2022-10-23T23:12:06.079Z,1.27
2022-10-23T23:14:32.638Z,1.40
2022-10-23T23:16:59.180Z,1.13
2022-10-23T23:19:25.716Z,1.10
2022-10-23T23:21:55.362Z,1.57
2022-10-23T23:24:23.414Z,1.17
2022-10-23T23:26:50.156Z,1.37
2022-10-23T23:29:18.360Z,1.50
2022-10-23T23:31:45.549Z,1.50
2022-10-23T23:34:12.045Z,1.53
2022-10-23T23:36:38.539Z,1.40
2022-10-23T23:41:38.277Z,1.80
2022-10-23T23:44:05.159Z,1.70
2022-10-23T23:46:31.646Z,1.50
2022-10-23T23:48:58.147Z,1.50
2022-10-23T23:51:25.358Z,1.80
2022-10-23T23:53:52.545Z,1.40
2022-10-23T23:56:20.084Z,1.27
2022-10-23T23:58:48.045Z,1.80
